Tomball, Texas
Current Conditions -  °F | °C
As of 8:53 PM on Friday 19 Dec 2014 (Local Time) from KDWH Reporting Station
Overcast Overcast  
Wind Chill: 53°   Ceiling: 1100
Heat Index: 53°   Visibility: 7mi
Dew Point: 50°   Wind: 8mph
Humidity: 89%   Direction: 360°N
Pressure: 30.12"   Gusts: NA
Location:  30.1°N, 95.62°W
Report Text: KDWH 200253Z 36007KT 7SM OVC011 12/10 A3012 RMK AO2 SLP198 T01170100 52018
Loading
Personal Weather Stations






























Interactive Weather Map New forecast layout! Learn more

10-Day Weather Forecast

Advertisements
Track Severe Weather on mobile